Greenwood, Canada
Current Conditions -  °F | °C
As of 6:00 AM on Friday 19 Dec 2014 (Local Time) from CYZX Reporting Station
Light Snow Light Snow  
Wind Chill: 24°   Ceiling: 2100
Heat Index: 32°   Visibility: 2.5mi
Dew Point: 28°   Wind: 10mph
Humidity: 87%   Direction: 310°NW
Pressure: 29.6"   Gusts: NA
Location:  44.98°N, 64.92°W
Report Text: CYZX 191000Z 31009KT 2 1/2SM -SN OVC021 00/M02 A2960 RMK SC8 WNDY HILL 33012G19KT PCPN VRY LGT /S01/ SLP027
Loading
Personal Weather Stations






























Interactive Weather Map New forecast layout! Learn more

10-Day Weather Forecast

Advertisements
Track Severe Weather on mobile